logo tempoitalia

Diretta Meteo Madrid-Torrejon, Spagnalunedì 31 agosto ore 07:00

Mappa
Sereno 17 °C Sereno 24 Ore: T.min 13 T.max 33
Ponente Nord-Est Km/h 7.4 Punto di rugiada: 7 °C Umidità: 51% Visibilità: 10 Km
Il sole sorge alle: 07:40 Il sole tramonta alle: 20:48
31 Agosto 2026 07:00 tempo osservato: Sereno Sereno 17 51 1019 vento: Nord NE 7.4
31 Agosto 2026 06:30 tempo osservato: Sereno Sereno 17 55 1019 vento: Nord NE 7.4
31 Agosto 2026 06:00 tempo osservato: Sereno Sereno 17 55 1019 vento: Nord N/NE 13
31 Agosto 2026 05:30 tempo osservato: Sereno Sereno 16 58 1019 vento: Nord N/NE 11.1
31 Agosto 2026 05:00 tempo osservato: Sereno Sereno 17 55 1019 vento: Nord N/NE 11.1
31 Agosto 2026 04:30 tempo osservato: Sereno Sereno 18 51 1019 vento: Nord N/NE 7.4
31 Agosto 2026 04:00 tempo osservato: Sereno Sereno 18 51 1019 vento: Nord N/NE 11.1
31 Agosto 2026 03:30 tempo osservato: Sereno Sereno 19 48 1019 vento: Nord N/NE 11.1
31 Agosto 2026 03:00 tempo osservato: Sereno Sereno 20 45 1019 vento: Nord N 13
31 Agosto 2026 02:30 tempo osservato: Sereno Sereno 21 43 1019 vento: Nord N 13
31 Agosto 2026 02:00 tempo osservato: Sereno Sereno 20 42 1019 vento: Nord N/NE 7.4
31 Agosto 2026 01:30 tempo osservato: Sereno Sereno 21 40 1019 vento: Nord N/NO 7.4
31 Agosto 2026 01:00 tempo osservato: Sereno Sereno 22 37 1019 vento: Nord NE 7.4
31 Agosto 2026 00:30 tempo osservato: Sereno Sereno 22 37 1018 vento: Nord N 1.8
31 Agosto 2026 00:00 tempo osservato: Sereno Sereno 24 33 1018 vento: Nord N 5.5
30 Agosto 2026 23:30 tempo osservato: Sereno Sereno 24 33 1018 vento: Nord N/NO 7.4
30 Agosto 2026 23:00 tempo osservato: Sereno Sereno 25 29 1018 vento: Nord SO 7.4
30 Agosto 2026 22:30 tempo osservato: Sereno Sereno 26 25 1018 vento: Nord SO 11.1
30 Agosto 2026 22:00 tempo osservato: Sereno Sereno 26 24 1017 vento: Nord SO 11.1
30 Agosto 2026 21:30 tempo osservato: Sereno Sereno 28 23 1017 vento: Nord O/SO 9.3
30 Agosto 2026 21:00 tempo osservato: Sereno Sereno 29 20 1017 vento: Nord SO 14.8
30 Agosto 2026 20:30 tempo osservato: Sereno Sereno 30 19 1017 vento: Nord SO 20.3
30 Agosto 2026 20:00 tempo osservato: Sereno Sereno 31 18 1017 vento: Nord SO 20.3
30 Agosto 2026 19:30 tempo osservato: Sereno Sereno 31 18 1017 vento: Nord O/SO 24
30 Agosto 2026 19:00 tempo osservato: Sereno Sereno 32 17 1016 vento: Nord SO 27.8
30 Agosto 2026 18:30 tempo osservato: Sereno Sereno 32 17 1016 vento: Nord S/SO 24
30 Agosto 2026 18:00 tempo osservato: Sereno Sereno 33 16 1017 vento: Nord SO 25.9
30 Agosto 2026 17:30 tempo osservato: Sereno Sereno 32 18 1017 vento: Nord S/SO 22.2
30 Agosto 2026 17:00 tempo osservato: Sereno Sereno 32 19 1017 vento: Nord SO 22.2
30 Agosto 2026 16:30 tempo osservato: Sereno Sereno 32 19 1017 vento: Nord S/SO 24
30 Agosto 2026 16:00 tempo osservato: Sereno Sereno 32 19 1018 vento: Nord SO 25.9
30 Agosto 2026 15:30 tempo osservato: Sereno Sereno 31 22 1018 vento: Nord S/SO 18.5
30 Agosto 2026 15:00 tempo osservato: Sereno Sereno 31 20 1018 vento: Nord S/SO 20.3
30 Agosto 2026 14:30 tempo osservato: Sereno Sereno 30 22 1019 vento: Nord SO 16.7
30 Agosto 2026 14:00 tempo osservato: Sereno Sereno 30 22 1019 vento: Nord SO 16.7
30 Agosto 2026 13:30 tempo osservato: Sereno Sereno 29 25 1019 vento: Nord S/SO 13
30 Agosto 2026 13:00 tempo osservato: Sereno Sereno 28 26 1019 vento: Nord S/SO 11.1
30 Agosto 2026 12:30 tempo osservato: Sereno Sereno 27 26 1020 vento: Nord N 5.5
30 Agosto 2026 12:00 tempo osservato: Sereno Sereno 25 27 1020 vento: Nord N 5.5
30 Agosto 2026 11:30 tempo osservato: Sereno Sereno 24 29 1020 vento: Nord N 5.5
30 Agosto 2026 11:00 tempo osservato: Sereno Sereno 23 31 1020 vento: Nord N 1.8
30 Agosto 2026 10:30 tempo osservato: Sereno Sereno 22 30 1020 vento: Nord N 1.8
30 Agosto 2026 10:00 tempo osservato: Sereno Sereno 21 35 1020 vento: Nord N 1.8
30 Agosto 2026 09:30 tempo osservato: Sereno Sereno 19 39 1020 vento: Nord N 1.8
30 Agosto 2026 09:00 tempo osservato: Sereno Sereno 16 44 1020 vento: Nord N 5.5
30 Agosto 2026 08:30 tempo osservato: Sereno Sereno 14 54 1019 vento: Nord N/NE 9.3
30 Agosto 2026 08:00 tempo osservato: Sereno Sereno 13 54 1019 vento: Nord N/NE 9.3